createdAt,value
2018-03-07T00:00:52.572Z,65.18
2018-03-07T00:03:25.199Z,66.50
2018-03-07T00:05:57.728Z,65.30
2018-03-07T00:08:29.877Z,71.87
2018-03-07T00:11:01.136Z,66.50
2018-03-07T00:13:32.312Z,70.53
2018-03-07T00:16:04.109Z,66.35
2018-03-07T00:18:35.147Z,66.03
2018-03-07T00:24:41.403Z,61.35
2018-03-07T00:27:13.170Z,63.00
2018-03-07T00:29:44.154Z,65.68
2018-03-07T00:32:15.981Z,61.08
2018-03-07T00:34:47.767Z,69.53
2018-03-07T00:37:19.243Z,64.78
2018-03-07T00:39:50.560Z,63.53
2018-03-07T00:42:29.276Z,63.55
2018-03-07T00:45:00.766Z,59.17
2018-03-07T00:47:32.799Z,64.53
2018-03-07T00:50:04.673Z,63.87
2018-03-07T00:52:37.833Z,60.67
2018-03-07T00:55:09.636Z,63.25
2018-03-07T00:57:40.299Z,62.05
2018-03-07T01:00:11.394Z,58.70
2018-03-07T01:02:43.620Z,61.08
2018-03-07T01:05:15.318Z,59.47
2018-03-07T01:07:45.839Z,62.97
2018-03-07T01:10:16.428Z,64.10
2018-03-07T01:12:47.101Z,57.78
2018-03-07T01:15:20.094Z,58.00
2018-03-07T01:17:51.243Z,59.53
2018-03-07T01:20:21.894Z,60.12
2018-03-07T01:22:57.107Z,62.70
2018-03-07T01:25:27.497Z,68.40
2018-03-07T01:27:57.906Z,66.70
2018-03-07T01:30:28.806Z,66.47
2018-03-07T01:32:59.640Z,69.75
2018-03-07T01:35:29.564Z,68.57
2018-03-07T01:38:01.009Z,67.90
2018-03-07T01:40:31.732Z,69.12
2018-03-07T01:43:01.828Z,70.65
2018-03-07T01:45:32.050Z,65.50
2018-03-07T01:48:02.109Z,69.78
2018-03-07T01:50:32.065Z,71.93
2018-03-07T01:53:06.477Z,72.47
2018-03-07T01:58:29.042Z,68.45
2018-03-07T02:01:00.437Z,71.50
2018-03-07T02:03:34.548Z,66.72
2018-03-07T02:06:21.206Z,69.40
2018-03-07T02:08:51.215Z,66.07
2018-03-07T02:11:22.747Z,65.00
2018-03-07T02:13:52.575Z,66.12
2018-03-07T02:16:23.786Z,66.03
2018-03-07T02:18:56.107Z,69.50
2018-03-07T02:21:26.580Z,68.53
2018-03-07T02:23:56.623Z,69.18
2018-03-07T02:26:26.671Z,67.70
2018-03-07T02:28:56.536Z,65.60
2018-03-07T02:31:27.798Z,68.90
2018-03-07T02:33:59.494Z,74.85
2018-03-07T02:36:42.074Z,73.05
2018-03-07T02:39:12.961Z,68.45
2018-03-07T02:41:43.194Z,70.35
2018-03-07T02:44:14.772Z,68.78
2018-03-07T02:46:44.184Z,72.25
2018-03-07T02:49:14.138Z,65.32
2018-03-07T02:51:44.225Z,70.30
2018-03-07T02:54:13.987Z,73.03
2018-03-07T02:56:57.877Z,70.22
2018-03-07T02:59:27.403Z,68.00
2018-03-07T03:01:57.647Z,64.53
2018-03-07T03:04:27.143Z,64.87
2018-03-07T03:06:56.627Z,67.93
2018-03-07T03:09:26.243Z,65.57
2018-03-07T03:11:56.351Z,73.82
2018-03-07T03:14:27.004Z,69.62
2018-03-07T03:16:57.455Z,72.70
2018-03-07T03:19:27.629Z,67.72
2018-03-07T03:21:58.776Z,71.35
2018-03-07T03:24:29.300Z,65.37
2018-03-07T03:26:59.884Z,65.50
2018-03-07T03:29:29.582Z,68.62
2018-03-07T03:31:59.103Z,67.72
2018-03-07T03:34:28.704Z,56.00
2018-03-07T03:36:58.159Z,58.42
2018-03-07T03:39:28.613Z,63.17
2018-03-07T03:41:58.055Z,56.28
2018-03-07T03:44:27.668Z,55.35
2018-03-07T03:46:57.226Z,59.85
2018-03-07T03:49:27.911Z,58.42
2018-03-07T03:51:57.496Z,53.83
2018-03-07T03:54:27.874Z,56.83
2018-03-07T03:56:58.286Z,56.97
2018-03-07T03:59:28.161Z,57.00
2018-03-07T04:01:58.429Z,60.58
2018-03-07T04:04:27.897Z,57.10
2018-03-07T04:06:57.475Z,57.25
2018-03-07T04:09:27.548Z,53.87
2018-03-07T04:11:57.779Z,56.85
2018-03-07T04:14:27.160Z,57.53
2018-03-07T04:16:56.737Z,57.40
2018-03-07T04:19:27.886Z,56.85
2018-03-07T04:21:57.257Z,57.40
2018-03-07T04:24:29.310Z,59.25
2018-03-07T04:26:58.803Z,57.05
2018-03-07T04:29:28.399Z,57.13
2018-03-07T04:31:58.573Z,54.33
2018-03-07T04:34:28.725Z,54.50
2018-03-07T04:36:58.532Z,59.70
2018-03-07T04:39:31.492Z,58.47
2018-03-07T04:42:02.559Z,57.97
2018-03-07T04:44:31.987Z,57.97
2018-03-07T04:47:02.542Z,57.42
2018-03-07T04:49:32.893Z,57.83
2018-03-07T04:52:02.341Z,60.00
2018-03-07T04:54:31.726Z,55.72
2018-03-07T04:57:01.523Z,57.60
2018-03-07T04:59:32.545Z,55.22
2018-03-07T05:02:03.215Z,59.08
2018-03-07T05:04:33.891Z,58.22
2018-03-07T05:07:06.417Z,55.58
2018-03-07T05:09:38.910Z,59.97
2018-03-07T05:12:10.122Z,58.58
2018-03-07T05:14:39.556Z,59.65
2018-03-07T05:17:14.278Z,60.65
2018-03-07T05:19:44.741Z,60.75
2018-03-07T05:22:14.438Z,56.30
2018-03-07T05:24:44.246Z,61.78
2018-03-07T05:27:15.420Z,59.70
2018-03-07T05:29:49.123Z,55.90
2018-03-07T05:32:22.372Z,56.78
2018-03-07T05:34:53.243Z,58.55
2018-03-07T05:38:37.890Z,59.88
2018-03-07T05:41:08.393Z,60.28
2018-03-07T05:43:38.783Z,60.08
2018-03-07T05:46:11.305Z,58.75
2018-03-07T05:48:45.301Z,57.83
2018-03-07T05:51:16.177Z,59.60
2018-03-07T05:53:46.862Z,60.22
2018-03-07T05:56:22.433Z,63.00
2018-03-07T05:58:53.319Z,61.80
2018-03-07T06:01:25.933Z,66.78
2018-03-07T06:03:56.974Z,63.72
2018-03-07T06:06:28.803Z,60.78
2018-03-07T06:09:00.954Z,59.05
2018-03-07T06:11:33.189Z,63.38
2018-03-07T06:14:10.490Z,61.22
2018-03-07T06:16:41.362Z,64.78
2018-03-07T06:19:12.690Z,59.95
2018-03-07T06:21:44.798Z,60.92
2018-03-07T06:24:16.178Z,61.58
2018-03-07T06:26:47.734Z,64.03
2018-03-07T06:29:19.506Z,66.15
2018-03-07T06:31:51.604Z,63.50
2018-03-07T06:34:24.910Z,63.30
2018-03-07T06:36:56.084Z,62.42
2018-03-07T06:39:28.170Z,66.03
2018-03-07T06:42:00.440Z,65.62
2018-03-07T06:44:32.142Z,63.30
2018-03-07T06:47:03.876Z,64.10
2018-03-07T06:49:36.080Z,65.43
2018-03-07T06:52:08.385Z,67.95
2018-03-07T06:54:40.004Z,70.80
2018-03-07T06:57:12.415Z,65.25
2018-03-07T06:59:49.787Z,67.40
2018-03-07T07:02:22.144Z,67.90
2018-03-07T07:04:53.742Z,66.10
2018-03-07T07:07:26.104Z,62.15
2018-03-07T07:09:58.845Z,59.67
2018-03-07T07:12:31.970Z,61.83
2018-03-07T07:15:04.104Z,62.25
2018-03-07T07:17:37.006Z,64.25
2018-03-07T07:20:12.427Z,63.78
2018-03-07T07:22:44.738Z,62.33
2018-03-07T07:25:17.047Z,61.53
2018-03-07T07:27:49.517Z,64.00
2018-03-07T07:30:21.721Z,62.13
2018-03-07T07:32:53.452Z,60.80
2018-03-07T07:35:25.081Z,62.62
2018-03-07T07:37:57.167Z,57.08
2018-03-07T07:40:30.136Z,62.45
2018-03-07T07:43:02.429Z,63.83
2018-03-07T07:45:35.280Z,64.55
2018-03-07T07:48:07.481Z,59.70
2018-03-07T07:50:39.500Z,61.08
2018-03-07T07:53:10.900Z,61.40
2018-03-07T07:55:42.846Z,63.80
2018-03-07T07:58:15.468Z,60.30
2018-03-07T08:00:47.606Z,63.65
2018-03-07T08:03:20.289Z,62.67
2018-03-07T08:05:52.741Z,61.60
2018-03-07T08:08:24.839Z,63.47
2018-03-07T08:10:56.747Z,61.50
2018-03-07T08:13:29.198Z,67.60
2018-03-07T08:16:02.696Z,67.95
2018-03-07T08:18:36.557Z,63.50
2018-03-07T08:21:08.381Z,62.10
2018-03-07T08:23:39.751Z,66.22
2018-03-07T08:26:11.212Z,66.28
2018-03-07T08:28:42.453Z,64.62
2018-03-07T08:31:18.917Z,66.03
2018-03-07T08:33:50.154Z,63.50
2018-03-07T08:36:27.513Z,67.03
2018-03-07T08:38:58.720Z,67.25
2018-03-07T08:41:32.832Z,74.62
2018-03-07T08:44:03.994Z,70.82
2018-03-07T08:46:36.081Z,71.40
2018-03-07T08:49:07.706Z,69.05
2018-03-07T08:51:40.122Z,70.00
2018-03-07T08:54:13.312Z,71.68
2018-03-07T08:56:46.319Z,66.80
2018-03-07T08:59:18.225Z,69.70
2018-03-07T09:01:49.718Z,69.20
2018-03-07T09:04:23.047Z,73.57
2018-03-07T09:06:55.055Z,72.87
2018-03-07T09:09:27.025Z,71.45
2018-03-07T09:11:58.985Z,73.62
2018-03-07T09:14:30.360Z,74.45
2018-03-07T09:17:02.068Z,72.70
2018-03-07T09:19:34.800Z,74.30
2018-03-07T09:22:07.307Z,66.68
2018-03-07T09:24:38.610Z,70.57
2018-03-07T09:27:10.309Z,67.18
2018-03-07T09:29:42.283Z,66.62
2018-03-07T09:32:14.232Z,67.93
2018-03-07T09:34:49.664Z,69.87
2018-03-07T09:37:22.219Z,69.37
2018-03-07T09:39:54.724Z,68.03
2018-03-07T09:42:29.079Z,66.37
2018-03-07T09:46:03.249Z,63.20
2018-03-07T09:48:34.329Z,60.65
2018-03-07T09:51:07.987Z,61.08
2018-03-07T09:53:40.988Z,62.22
2018-03-07T09:56:13.030Z,59.08
2018-03-07T09:58:46.259Z,59.50
2018-03-07T10:01:18.507Z,55.15
2018-03-07T10:03:52.862Z,53.13
2018-03-07T10:06:24.331Z,50.75
2018-03-07T10:08:55.379Z,51.22
2018-03-07T10:11:29.481Z,50.67
2018-03-07T10:14:02.395Z,51.50
2018-03-07T10:16:34.222Z,46.47
2018-03-07T10:19:06.898Z,46.88
2018-03-07T10:21:39.987Z,47.55
2018-03-07T10:24:12.316Z,43.10
2018-03-07T10:26:47.794Z,46.42
2018-03-07T10:29:20.342Z,43.08
2018-03-07T10:31:58.236Z,41.95
2018-03-07T10:34:33.043Z,43.10
2018-03-07T10:37:04.358Z,37.60
2018-03-07T10:39:35.830Z,35.40
2018-03-07T10:42:08.269Z,38.42
2018-03-07T10:44:40.833Z,37.50
2018-03-07T10:47:12.718Z,35.17
2018-03-07T10:49:45.549Z,33.80
2018-03-07T10:52:17.868Z,33.33
2018-03-07T10:54:50.839Z,31.35
2018-03-07T10:57:22.262Z,32.15
2018-03-07T10:59:53.461Z,34.08
2018-03-07T11:02:25.372Z,31.17
2018-03-07T11:04:57.467Z,29.42
2018-03-07T11:07:28.518Z,30.88
2018-03-07T11:12:17.580Z,30.40
2018-03-07T11:14:48.920Z,32.15
2018-03-07T11:17:22.197Z,31.92
2018-03-07T11:19:54.298Z,31.08
2018-03-07T11:22:27.994Z,28.83
2018-03-07T11:24:59.673Z,29.77
2018-03-07T11:27:32.128Z,25.55
2018-03-07T11:30:12.824Z,29.08
2018-03-07T11:32:45.462Z,25.52
2018-03-07T11:35:18.351Z,28.05
2018-03-07T11:37:56.128Z,27.60
2018-03-07T11:40:29.690Z,27.33
2018-03-07T11:43:01.899Z,28.70
2018-03-07T11:45:34.186Z,28.08
2018-03-07T11:48:19.393Z,28.65
2018-03-07T11:50:50.408Z,28.17
2018-03-07T11:53:23.242Z,29.00
2018-03-07T11:55:53.909Z,30.55
2018-03-07T11:58:25.109Z,32.08
2018-03-07T12:00:56.599Z,30.75
2018-03-07T12:03:27.386Z,31.50
2018-03-07T12:05:58.163Z,30.98
2018-03-07T12:08:31.228Z,32.95
2018-03-07T12:11:01.891Z,33.72
2018-03-07T12:13:32.754Z,36.45
2018-03-07T12:16:04.386Z,33.20
2018-03-07T12:18:36.787Z,33.85
2018-03-07T12:21:09.073Z,33.38
2018-03-07T12:23:42.431Z,33.00
2018-03-07T12:26:15.612Z,33.70
2018-03-07T12:28:47.753Z,33.05
2018-03-07T12:31:18.639Z,34.92
2018-03-07T12:33:49.422Z,35.65
2018-03-07T12:36:26.690Z,35.08
2018-03-07T12:38:59.202Z,32.88
2018-03-07T12:41:32.060Z,33.03
2018-03-07T12:44:04.333Z,34.53
2018-03-07T12:46:36.072Z,32.63
2018-03-07T12:49:09.019Z,33.20
2018-03-07T12:51:40.805Z,30.60
2018-03-07T12:54:12.889Z,30.20
2018-03-07T12:56:45.713Z,28.33
2018-03-07T12:59:17.581Z,31.60
2018-03-07T13:01:54.616Z,31.73
2018-03-07T13:04:25.442Z,27.65
2018-03-07T13:06:56.158Z,29.12
2018-03-07T13:09:29.912Z,27.33
2018-03-07T13:12:01.707Z,25.90
2018-03-07T13:14:39.670Z,26.75
2018-03-07T13:17:11.651Z,26.35
2018-03-07T13:19:42.984Z,24.27
2018-03-07T13:22:14.657Z,23.23
2018-03-07T13:24:46.500Z,23.90
2018-03-07T13:27:18.081Z,24.27
2018-03-07T13:29:49.992Z,22.55
2018-03-07T13:32:24.771Z,20.67
2018-03-07T13:34:56.322Z,21.12
2018-03-07T13:37:28.082Z,19.92
2018-03-07T13:39:59.740Z,19.83
2018-03-07T13:42:30.558Z,20.83
2018-03-07T13:45:02.129Z,20.27
2018-03-07T13:47:36.575Z,22.05
2018-03-07T13:50:08.280Z,21.40
2018-03-07T13:52:39.503Z,21.00
2018-03-07T13:55:19.195Z,22.13
2018-03-07T13:57:51.667Z,21.45
2018-03-07T14:00:22.472Z,20.37
2018-03-07T14:02:53.319Z,20.08
2018-03-07T14:05:23.920Z,19.67
2018-03-07T14:07:57.335Z,17.62
2018-03-07T14:10:28.665Z,18.60
2018-03-07T14:13:00.165Z,16.70
2018-03-07T14:15:32.799Z,17.92
2018-03-07T14:18:04.289Z,16.90
2018-03-07T14:20:35.047Z,16.98
2018-03-07T14:23:08.318Z,18.50
2018-03-07T14:25:42.235Z,16.40
2018-03-07T14:28:29.269Z,16.45
2018-03-07T14:33:46.101Z,17.65
2018-03-07T14:36:18.420Z,15.75
2018-03-07T14:38:52.591Z,18.75
2018-03-07T14:41:25.906Z,19.80
2018-03-07T14:43:57.840Z,17.67
2018-03-07T14:46:28.533Z,20.08
2018-03-07T14:48:59.289Z,19.20
2018-03-07T14:51:45.720Z,16.92
2018-03-07T14:54:18.587Z,18.42
2018-03-07T14:56:49.405Z,17.55
2018-03-07T14:59:22.213Z,17.75
2018-03-07T15:01:53.659Z,17.05
2018-03-07T15:04:25.046Z,18.77
2018-03-07T15:06:56.440Z,17.75
2018-03-07T15:09:27.740Z,17.85
2018-03-07T15:11:58.537Z,15.40
2018-03-07T15:14:29.106Z,16.08
2018-03-07T15:16:59.648Z,15.70
2018-03-07T15:19:30.768Z,14.98
2018-03-07T15:22:03.145Z,15.70
2018-03-07T15:24:35.715Z,13.88
2018-03-07T15:27:13.929Z,15.07
2018-03-07T15:29:46.942Z,12.60
2018-03-07T15:32:21.337Z,13.62
2018-03-07T15:34:52.595Z,13.35
2018-03-07T15:37:24.727Z,11.95
2018-03-07T15:39:55.831Z,10.93
2018-03-07T15:42:29.496Z,11.38
2018-03-07T15:44:59.990Z,13.10
2018-03-07T15:47:30.336Z,9.98
2018-03-07T15:50:02.608Z,10.00
2018-03-07T15:52:34.641Z,8.90
2018-03-07T15:55:06.174Z,7.37
2018-03-07T15:57:36.968Z,8.75
2018-03-07T16:00:10.714Z,8.75
2018-03-07T16:02:43.785Z,8.25
2018-03-07T16:05:15.800Z,8.40
2018-03-07T16:07:55.276Z,7.55
2018-03-07T16:10:26.980Z,7.82
2018-03-07T16:13:00.782Z,7.50
2018-03-07T16:15:31.130Z,7.70
2018-03-07T16:18:02.910Z,8.80
2018-03-07T16:20:35.565Z,7.75
2018-03-07T16:23:07.093Z,7.55
2018-03-07T16:25:37.602Z,8.10
2018-03-07T16:28:10.876Z,8.20
2018-03-07T16:30:42.542Z,7.50
2018-03-07T16:33:18.813Z,7.65
2018-03-07T16:35:49.520Z,7.57
2018-03-07T16:38:43.139Z,7.85
2018-03-07T16:41:21.208Z,8.10
2018-03-07T16:43:52.790Z,8.00
2018-03-07T16:46:23.966Z,8.15
2018-03-07T16:48:55.217Z,8.18
2018-03-07T16:51:27.422Z,8.27
2018-03-07T16:53:59.063Z,7.62
2018-03-07T16:56:30.155Z,8.02
2018-03-07T16:59:00.713Z,7.60
2018-03-07T17:01:32.990Z,7.10
2018-03-07T17:04:03.404Z,7.10
2018-03-07T17:06:35.692Z,7.25
2018-03-07T17:09:08.386Z,8.07
2018-03-07T17:11:39.424Z,6.50
2018-03-07T17:14:11.750Z,7.57
2018-03-07T17:16:43.664Z,8.60
2018-03-07T17:19:15.676Z,8.27
2018-03-07T17:21:47.950Z,8.82
2018-03-07T17:24:19.346Z,8.98
2018-03-07T17:26:51.785Z,10.30
2018-03-07T17:29:23.540Z,8.55
2018-03-07T17:31:54.171Z,8.70
2018-03-07T17:34:25.320Z,8.70
2018-03-07T17:36:57.814Z,9.90
2018-03-07T17:39:29.940Z,8.95
2018-03-07T17:42:01.204Z,9.25
2018-03-07T17:44:33.209Z,9.98
2018-03-07T17:47:05.514Z,8.43
2018-03-07T17:49:36.890Z,9.07
2018-03-07T17:52:07.953Z,8.15
2018-03-07T17:54:40.148Z,8.65
2018-03-07T17:57:11.604Z,7.57
2018-03-07T17:59:43.090Z,7.22
2018-03-07T18:02:14.271Z,6.40
2018-03-07T18:04:47.146Z,7.10
2018-03-07T18:07:18.718Z,7.05
2018-03-07T18:09:49.549Z,7.55
2018-03-07T18:12:23.885Z,6.95
2018-03-07T18:14:55.377Z,7.90
2018-03-07T18:17:31.517Z,7.87
2018-03-07T18:20:05.957Z,7.25
2018-03-07T18:22:41.082Z,6.40
2018-03-07T18:25:11.697Z,6.18
2018-03-07T18:27:42.211Z,7.50
2018-03-07T18:30:12.562Z,7.20
2018-03-07T18:32:45.594Z,7.00
2018-03-07T18:35:16.905Z,7.57
2018-03-07T18:37:47.887Z,5.93
2018-03-07T18:40:18.888Z,6.75
2018-03-07T18:42:51.046Z,6.30
2018-03-07T18:45:22.262Z,6.15
2018-03-07T18:47:59.574Z,5.60
2018-03-07T18:50:29.861Z,5.78
2018-03-07T18:53:00.996Z,4.70
2018-03-07T18:55:31.344Z,5.50
2018-03-07T18:58:02.873Z,5.10
2018-03-07T19:00:34.327Z,5.40
2018-03-07T19:03:05.853Z,4.90
2018-03-07T19:05:36.150Z,5.10
2018-03-07T19:08:07.388Z,5.20
2018-03-07T19:10:38.698Z,5.45
2018-03-07T19:13:10.751Z,3.90
2018-03-07T19:15:41.236Z,4.20
2018-03-07T19:18:12.915Z,4.60
2018-03-07T19:20:43.304Z,4.82
2018-03-07T19:23:13.686Z,4.40
2018-03-07T19:25:45.168Z,4.95
2018-03-07T19:28:15.598Z,4.50
2018-03-07T19:30:48.799Z,4.65
2018-03-07T19:33:23.077Z,4.30
2018-03-07T19:35:55.515Z,4.50
2018-03-07T19:38:26.020Z,4.93
2018-03-07T19:40:56.544Z,4.30
2018-03-07T19:43:29.944Z,4.93
2018-03-07T19:46:01.701Z,4.95
2018-03-07T19:48:32.081Z,5.07
2018-03-07T19:51:03.422Z,5.30
2018-03-07T19:53:39.783Z,4.65
2018-03-07T19:56:11.344Z,4.87
2018-03-07T19:58:43.348Z,6.05
2018-03-07T20:01:13.766Z,4.82
2018-03-07T20:03:49.739Z,5.80
2018-03-07T20:06:23.649Z,5.45
2018-03-07T20:08:54.156Z,4.97
2018-03-07T20:11:24.609Z,5.93
2018-03-07T20:13:55.493Z,5.62
2018-03-07T20:16:28.172Z,6.03
2018-03-07T20:18:59.016Z,6.82
2018-03-07T20:21:30.093Z,8.30
2018-03-07T20:24:00.375Z,7.07
2018-03-07T20:26:31.319Z,7.00
2018-03-07T20:29:02.438Z,8.10
2018-03-07T20:31:33.707Z,9.40
2018-03-07T20:34:04.231Z,8.13
2018-03-07T20:36:36.903Z,9.35
2018-03-07T20:39:07.190Z,9.40
2018-03-07T20:41:37.904Z,9.40
2018-03-07T20:44:08.299Z,9.23
2018-03-07T20:46:38.892Z,9.35
2018-03-07T20:49:09.568Z,9.05
2018-03-07T20:51:42.309Z,10.07
2018-03-07T20:54:12.768Z,10.50
2018-03-07T20:56:44.343Z,10.45
2018-03-07T20:59:14.738Z,10.68
2018-03-07T21:01:46.281Z,9.82
2018-03-07T21:04:18.825Z,9.75
2018-03-07T21:06:50.231Z,11.25
2018-03-07T21:09:21.431Z,10.43
2018-03-07T21:11:51.898Z,10.05
2018-03-07T21:14:22.708Z,10.25
2018-03-07T21:16:53.210Z,11.82
2018-03-07T21:19:23.428Z,11.20
2018-03-07T21:21:53.795Z,11.38
2018-03-07T21:24:24.966Z,10.15
2018-03-07T21:26:56.170Z,12.02
2018-03-07T21:29:27.938Z,10.80
2018-03-07T21:31:58.673Z,10.73
2018-03-07T21:34:29.248Z,9.45
2018-03-07T21:36:59.844Z,10.93
2018-03-07T21:39:31.273Z,10.80
2018-03-07T21:42:05.412Z,10.02
2018-03-07T21:44:37.489Z,10.02
2018-03-07T21:47:09.141Z,10.32
2018-03-07T21:49:40.479Z,9.68
2018-03-07T21:52:18.057Z,10.70
2018-03-07T21:54:48.745Z,10.45
2018-03-07T21:57:19.887Z,9.82
2018-03-07T21:59:50.425Z,8.80
2018-03-07T22:02:20.765Z,9.27
2018-03-07T22:04:52.972Z,8.93
2018-03-07T22:07:24.962Z,8.77
2018-03-07T22:09:55.776Z,9.75
2018-03-07T22:12:26.552Z,9.70
2018-03-07T22:14:57.041Z,10.10
2018-03-07T22:17:27.496Z,10.18
2018-03-07T22:19:58.435Z,8.80
2018-03-07T22:22:30.546Z,9.40
2018-03-07T22:25:01.273Z,9.63
2018-03-07T22:27:34.433Z,10.10
2018-03-07T22:30:06.350Z,9.55
2018-03-07T22:32:36.857Z,10.20
2018-03-07T22:35:16.848Z,9.63
2018-03-07T22:37:47.573Z,10.98
2018-03-07T22:40:18.547Z,9.30
2018-03-07T22:42:49.215Z,9.63
2018-03-07T22:45:20.247Z,10.73
2018-03-07T22:47:52.548Z,10.05
2018-03-07T22:50:23.779Z,10.30
2018-03-07T22:52:54.648Z,9.70
2018-03-07T22:55:25.565Z,10.00
2018-03-07T22:57:58.316Z,10.07
2018-03-07T23:00:33.197Z,10.52
2018-03-07T23:03:04.340Z,11.15
2018-03-07T23:05:35.667Z,10.63
2018-03-07T23:08:06.626Z,11.20
2018-03-07T23:10:37.586Z,10.60
2018-03-07T23:13:08.724Z,10.50
2018-03-07T23:15:39.800Z,10.98
2018-03-07T23:18:11.834Z,10.20
2018-03-07T23:20:42.962Z,10.48
2018-03-07T23:23:14.128Z,10.75
2018-03-07T23:25:46.022Z,11.35
2018-03-07T23:28:18.275Z,10.60
2018-03-07T23:30:50.170Z,11.32
2018-03-07T23:33:21.465Z,9.98
2018-03-07T23:35:53.658Z,10.25
2018-03-07T23:38:24.654Z,10.90
2018-03-07T23:40:55.830Z,11.07
2018-03-07T23:43:28.004Z,10.95
2018-03-07T23:45:59.357Z,11.10
2018-03-07T23:48:31.865Z,11.50
2018-03-07T23:51:03.089Z,10.25
2018-03-07T23:53:35.040Z,11.30
2018-03-07T23:56:07.226Z,10.98
2018-03-07T23:58:40.568Z,11.18
